createdAt,value
2022-08-03T00:01:31.010Z,75.97
2022-08-03T00:06:37.321Z,75.21
2022-08-03T00:11:41.763Z,74.98
2022-08-03T00:16:45.774Z,75.02
2022-08-03T00:21:50.525Z,76.36
2022-08-03T00:26:54.872Z,76.14
2022-08-03T00:32:02.284Z,76.12
2022-08-03T00:37:06.824Z,76.57
2022-08-03T00:42:11.072Z,75.89
2022-08-03T00:47:15.295Z,76.62
2022-08-03T00:52:19.519Z,76.15
2022-08-03T00:57:23.882Z,76.51
2022-08-03T01:02:31.758Z,76.08
2022-08-03T01:08:33.248Z,76.19
2022-08-03T01:14:01.675Z,77.29
2022-08-03T01:19:19.893Z,77.57
2022-08-03T01:24:51.968Z,77.44
2022-08-03T01:30:04.055Z,77.44
2022-08-03T01:35:15.057Z,77.30
2022-08-03T01:40:22.837Z,77.54
2022-08-03T01:45:28.959Z,77.93
2022-08-03T01:50:41.030Z,78.41
2022-08-03T01:55:50.769Z,78.91
2022-08-03T02:01:02.004Z,79.14
2022-08-03T02:06:59.909Z,78.70
2022-08-03T02:11:37.639Z,77.90
2022-08-03T02:16:41.785Z,79.11
2022-08-03T02:21:56.673Z,79.22
2022-08-03T02:27:19.400Z,79.31
2022-08-03T02:32:35.236Z,79.07
2022-08-03T02:37:50.054Z,79.27
2022-08-03T02:43:00.941Z,78.81
2022-08-03T02:48:08.084Z,78.50
2022-08-03T02:53:14.687Z,78.11
2022-08-03T02:58:24.864Z,77.97
2022-08-03T03:03:35.301Z,77.97
2022-08-03T03:08:57.902Z,77.03
2022-08-03T03:14:04.423Z,77.76
2022-08-03T03:19:16.299Z,77.61
2022-08-03T03:24:21.706Z,76.36
2022-08-03T03:29:26.832Z,76.63
2022-08-03T03:34:31.890Z,77.20
2022-08-03T03:39:37.203Z,77.11
2022-08-03T03:44:41.289Z,77.08
2022-08-03T03:49:47.069Z,76.63
2022-08-03T03:54:58.920Z,76.85
2022-08-03T04:00:06.687Z,76.39
2022-08-03T04:05:29.859Z,76.61
2022-08-03T04:10:56.717Z,76.64
2022-08-03T04:16:02.640Z,76.37
2022-08-03T04:21:12.077Z,76.16
2022-08-03T04:26:22.068Z,76.25
2022-08-03T04:31:28.985Z,75.66
2022-08-03T04:36:40.936Z,76.38
2022-08-03T04:42:07.065Z,76.42
2022-08-03T04:47:14.079Z,76.55
2022-08-03T04:52:18.930Z,76.07
2022-08-03T04:57:23.693Z,76.21
2022-08-03T05:02:27.806Z,76.11
2022-08-03T05:07:35.508Z,76.04
2022-08-03T05:12:41.613Z,75.72
2022-08-03T05:17:45.950Z,75.71
2022-08-03T05:22:50.292Z,75.18
2022-08-03T05:27:54.464Z,74.72
2022-08-03T05:32:58.873Z,73.03
2022-08-03T05:38:04.661Z,72.40
2022-08-03T05:43:09.841Z,71.91
2022-08-03T05:48:13.832Z,71.27
2022-08-03T05:53:17.873Z,70.61
2022-08-03T05:58:22.010Z,69.61
2022-08-03T06:03:26.187Z,68.96
2022-08-03T06:08:30.390Z,67.98
2022-08-03T06:13:36.135Z,67.38
2022-08-03T06:18:41.222Z,66.53
2022-08-03T06:23:54.383Z,65.60
2022-08-03T06:28:59.836Z,64.22
2022-08-03T06:34:32.396Z,64.57
2022-08-03T06:39:32.960Z,64.34
2022-08-03T06:44:39.352Z,64.50
2022-08-03T06:49:43.928Z,64.08
2022-08-03T06:55:09.105Z,62.09
2022-08-03T07:00:14.521Z,60.16
2022-08-03T07:05:19.523Z,58.85
2022-08-03T07:10:24.163Z,56.27
2022-08-03T07:15:54.014Z,55.53
2022-08-03T07:20:53.290Z,56.18
2022-08-03T07:25:57.671Z,56.63
2022-08-03T07:31:01.905Z,56.19
2022-08-03T07:36:06.388Z,54.06
2022-08-03T07:41:10.690Z,51.61
2022-08-03T07:46:15.851Z,50.94
2022-08-03T07:51:20.080Z,48.17
2022-08-03T07:56:28.717Z,47.94
2022-08-03T08:01:36.393Z,46.47
2022-08-03T08:06:40.586Z,46.82
2022-08-03T08:11:44.948Z,47.17
2022-08-03T08:16:50.801Z,46.85
2022-08-03T08:22:02.457Z,47.06
2022-08-03T08:27:09.527Z,47.65
2022-08-03T08:32:16.279Z,47.89
2022-08-03T08:37:20.748Z,47.73
2022-08-03T08:42:25.625Z,47.38
2022-08-03T08:47:51.554Z,47.43
2022-08-03T08:53:01.674Z,47.09
2022-08-03T08:58:08.114Z,46.54
2022-08-03T09:03:29.186Z,45.80
2022-08-03T09:08:35.115Z,45.27
2022-08-03T09:13:39.804Z,44.78
2022-08-03T09:18:50.292Z,44.62
2022-08-03T09:24:03.183Z,44.35
2022-08-03T09:29:15.644Z,43.59
2022-08-03T09:34:26.109Z,42.79
2022-08-03T09:39:41.508Z,41.32
2022-08-03T09:44:52.325Z,40.28
2022-08-03T09:50:02.624Z,40.41
2022-08-03T09:56:30.644Z,39.78
2022-08-03T10:00:56.322Z,39.10
2022-08-03T10:06:16.015Z,39.58
2022-08-03T10:11:42.055Z,39.30
2022-08-03T10:16:48.559Z,38.21
2022-08-03T10:22:03.428Z,38.36
2022-08-03T10:27:12.105Z,39.00
2022-08-03T10:33:03.983Z,38.88
2022-08-03T10:38:25.968Z,37.61
2022-08-03T10:43:49.736Z,37.14
2022-08-03T10:48:55.305Z,37.21
2022-08-03T10:54:01.916Z,36.07
2022-08-03T10:59:06.219Z,35.43
2022-08-03T11:04:21.713Z,36.34
2022-08-03T11:09:26.767Z,36.68
2022-08-03T11:14:48.749Z,36.97
2022-08-03T11:19:56.947Z,35.28
2022-08-03T11:25:02.691Z,35.64
2022-08-03T11:30:14.363Z,35.60
2022-08-03T11:35:25.531Z,35.07
2022-08-03T11:40:43.593Z,35.97
2022-08-03T11:46:28.674Z,36.77
2022-08-03T11:51:34.824Z,34.42
2022-08-03T11:56:49.187Z,33.63
2022-08-03T12:02:17.546Z,34.18
2022-08-03T12:08:02.494Z,34.47
2022-08-03T12:12:46.933Z,35.37
2022-08-03T12:17:54.781Z,34.26
2022-08-03T12:23:10.336Z,33.90
2022-08-03T12:28:37.266Z,33.87
2022-08-03T12:34:07.355Z,34.06
2022-08-03T12:39:12.550Z,34.38
2022-08-03T12:44:16.937Z,34.07
2022-08-03T12:49:21.781Z,33.53
2022-08-03T12:54:32.518Z,33.19
2022-08-03T12:59:45.177Z,33.86
2022-08-03T13:04:58.373Z,34.11
2022-08-03T13:10:07.850Z,32.27
2022-08-03T13:15:13.039Z,32.27
2022-08-03T13:20:17.410Z,32.01
2022-08-03T13:25:22.410Z,32.75
2022-08-03T13:30:30.440Z,32.91
2022-08-03T13:35:34.932Z,33.44
2022-08-03T13:40:42.312Z,33.82
2022-08-03T13:45:51.192Z,33.68
2022-08-03T13:51:00.401Z,33.94
2022-08-03T13:56:06.846Z,34.24
2022-08-03T14:01:12.021Z,34.17
2022-08-03T14:06:16.834Z,33.52
2022-08-03T14:11:21.077Z,32.99
2022-08-03T14:16:25.323Z,32.47
2022-08-03T14:21:29.771Z,32.71
2022-08-03T14:26:33.801Z,31.63
2022-08-03T14:32:11.016Z,31.95
2022-08-03T14:37:03.562Z,31.27
2022-08-03T14:42:08.147Z,31.66
2022-08-03T14:47:15.417Z,31.90
2022-08-03T14:52:22.518Z,31.86
2022-08-03T14:57:27.913Z,32.38
2022-08-03T15:02:32.090Z,31.86
2022-08-03T15:07:36.360Z,30.59
2022-08-03T15:12:40.703Z,29.24
2022-08-03T15:18:00.347Z,28.19
2022-08-03T15:23:05.875Z,27.56
2022-08-03T15:28:10.096Z,27.28
2022-08-03T15:33:14.145Z,26.81
2022-08-03T15:38:18.978Z,25.62
2022-08-03T15:43:24.471Z,25.44
2022-08-03T15:48:28.586Z,24.70
2022-08-03T15:53:34.136Z,24.36
2022-08-03T15:59:09.649Z,23.43
2022-08-03T16:04:06.330Z,23.55
2022-08-03T16:09:23.936Z,23.28
2022-08-03T16:14:46.868Z,23.39
2022-08-03T16:20:00.319Z,23.48
2022-08-03T16:25:05.465Z,22.30
2022-08-03T16:30:24.296Z,21.59
2022-08-03T16:35:29.522Z,22.76
2022-08-03T16:40:35.691Z,22.87
2022-08-03T16:45:40.201Z,23.31
2022-08-03T16:50:45.154Z,24.02
2022-08-03T16:55:53.118Z,24.30
2022-08-03T17:01:10.888Z,24.32
2022-08-03T17:06:33.787Z,24.60
2022-08-03T17:11:46.723Z,24.75
2022-08-03T17:16:56.335Z,25.17
2022-08-03T17:22:13.365Z,25.74
2022-08-03T17:28:49.247Z,26.69
2022-08-03T17:32:57.584Z,28.60
2022-08-03T17:38:05.765Z,30.28
2022-08-03T17:44:13.111Z,32.12
2022-08-03T17:48:42.903Z,33.65
2022-08-03T17:54:01.509Z,34.76
2022-08-03T17:59:51.750Z,35.51
2022-08-03T18:04:57.381Z,36.09
2022-08-03T18:10:12.124Z,37.05
2022-08-03T18:15:31.957Z,37.32
2022-08-03T18:26:07.308Z,40.28
2022-08-03T18:31:59.466Z,41.76
2022-08-03T18:36:50.013Z,42.13
2022-08-03T18:41:54.602Z,43.90
2022-08-03T18:47:50.696Z,45.24
2022-08-03T18:53:23.824Z,45.03
2022-08-03T18:59:02.300Z,46.48
2022-08-03T19:04:16.895Z,50.15
2022-08-03T19:09:59.331Z,51.48
2022-08-03T19:15:12.720Z,53.66
2022-08-03T19:20:29.300Z,53.10
2022-08-03T19:25:41.477Z,54.94
2022-08-03T19:30:53.662Z,56.68
2022-08-03T19:36:15.791Z,57.55
2022-08-03T19:41:22.337Z,57.32
2022-08-03T19:46:31.664Z,57.25
2022-08-03T19:52:00.686Z,57.72
2022-08-03T19:57:07.332Z,58.68
2022-08-03T20:02:27.103Z,59.77
2022-08-03T20:07:33.389Z,60.84
2022-08-03T20:12:40.929Z,61.58
2022-08-03T20:17:56.617Z,61.70
2022-08-03T20:23:11.896Z,62.93
2022-08-03T20:28:32.106Z,62.83
2022-08-03T20:33:46.537Z,62.80
2022-08-03T20:38:57.606Z,62.47
2022-08-03T20:44:02.719Z,62.68
2022-08-03T20:49:07.843Z,63.20
2022-08-03T20:54:22.719Z,63.80
2022-08-03T20:59:50.206Z,63.94
2022-08-03T21:04:55.910Z,64.14
2022-08-03T21:10:05.291Z,65.23
2022-08-03T21:12:57.779Z,37.90
2022-08-03T21:16:03.249Z,66.27
2022-08-03T21:20:47.816Z,65.53
2022-08-03T21:25:53.148Z,66.88
2022-08-03T21:31:00.403Z,67.06
2022-08-03T21:36:05.142Z,66.65
2022-08-03T21:41:09.440Z,66.76
2022-08-03T21:46:18.976Z,67.62
2022-08-03T21:51:26.889Z,67.36
2022-08-03T21:56:40.815Z,69.74
2022-08-03T22:01:51.357Z,70.41
2022-08-03T22:07:00.164Z,70.65
2022-08-03T22:12:05.638Z,69.77
2022-08-03T22:17:10.051Z,69.81
2022-08-03T22:22:18.590Z,69.51
2022-08-03T22:27:30.711Z,68.68
2022-08-03T22:32:35.026Z,68.09
2022-08-03T22:37:41.562Z,68.31
2022-08-03T22:42:50.524Z,68.98
2022-08-03T22:47:58.937Z,68.83
2022-08-03T22:53:03.812Z,67.55
2022-08-03T22:58:08.009Z,68.45
2022-08-03T23:03:14.729Z,68.62
2022-08-03T23:08:25.663Z,67.74
2022-08-03T23:13:33.651Z,67.91
2022-08-03T23:18:43.038Z,68.11
2022-08-03T23:23:47.518Z,68.54
2022-08-03T23:28:56.077Z,67.92
2022-08-03T23:34:20.559Z,67.59
2022-08-03T23:39:29.429Z,67.43
2022-08-03T23:44:44.199Z,67.43
2022-08-03T23:49:48.418Z,67.75
2022-08-03T23:55:17.109Z,68.56
